Time;durP1;ratioP1;P1;durP2;ratioP2;P2;SDS_P1;SDS_P2;PMS_P1;PMS_P2;Temp;Humidity;BMP_temperature;BMP_pressure;BME280_temperature;BME280_humidity;BME280_pressure;Samples;Min_cycle;Max_cycle;Signal;HPM_P1;HPM_P2
2022/07/22 00:00:27;;;;;;;14.87;13.30;;;18.00;99.90;;;;;;5078435;28;20186;-82
2022/07/22 00:02:53;;;;;;;15.83;14.23;;;18.00;99.90;;;;;;5080458;28;20200;-82
2022/07/22 00:05:18;;;;;;;17.40;14.80;;;18.00;99.90;;;;;;5079805;28;20206;-81
2022/07/22 00:07:44;;;;;;;16.63;14.23;;;18.00;99.90;;;;;;5080191;28;20183;-81
2022/07/22 00:10:10;;;;;;;18.53;14.30;;;18.00;99.90;;;;;;5080888;28;20183;-82
2022/07/22 00:12:37;;;;;;;16.60;14.30;;;17.90;99.90;;;;;;5077814;28;20183;-82
2022/07/22 00:15:04;;;;;;;20.93;15.20;;;17.90;99.90;;;;;;5078954;28;20667;-82
2022/07/22 00:17:29;;;;;;;20.07;14.30;;;17.90;99.90;;;;;;5079474;28;20175;-81
2022/07/22 00:19:55;;;;;;;16.17;14.40;;;17.80;99.90;;;;;;5079940;28;20267;-81
2022/07/22 00:22:21;;;;;;;17.07;14.33;;;17.80;99.90;;;;;;5078544;28;20190;-81
2022/07/22 00:24:47;;;;;;;17.07;14.90;;;17.80;99.90;;;;;;5077789;28;20217;-81
2022/07/22 00:27:12;;;;;;;17.00;14.53;;;17.70;99.90;;;;;;5079842;28;20172;-81
2022/07/22 00:29:38;;;;;;;17.40;14.90;;;17.70;99.90;;;;;;5080019;28;20198;-82
2022/07/22 00:32:04;;;;;;;18.17;13.70;;;17.70;99.90;;;;;;5078451;28;20247;-83
2022/07/22 00:34:30;;;;;;;16.87;14.07;;;17.70;99.90;;;;;;5078413;28;20201;-82
2022/07/22 00:36:56;;;;;;;17.30;14.03;;;;;;;;;;5079089;28;20183;-82
2022/07/22 00:39:22;;;;;;;15.90;13.93;;;17.70;99.90;;;;;;5078607;28;20191;-82
2022/07/22 00:41:49;;;;;;;15.73;13.47;;;17.60;99.90;;;;;;5078405;28;20182;-82
2022/07/22 00:44:14;;;;;;;16.37;14.43;;;17.60;99.90;;;;;;5078885;28;20210;-82
2022/07/22 00:46:40;;;;;;;20.00;13.53;;;17.60;99.90;;;;;;5081787;28;20185;-82
2022/07/22 00:49:08;;;;;;;15.73;14.13;;;17.50;99.90;;;;;;5078061;28;20170;-83
2022/07/22 00:51:34;;;;;;;16.63;14.70;;;17.60;99.90;;;;;;5077870;28;20538;-83
2022/07/22 00:54:01;;;;;;;18.10;14.20;;;17.50;99.90;;;;;;5079046;28;20351;-81
2022/07/22 00:56:28;;;;;;;16.30;14.60;;;17.40;99.90;;;;;;5076863;28;20278;-82
2022/07/22 00:58:56;;;;;;;17.27;14.97;;;17.40;99.90;;;;;;5077843;28;20258;-82
2022/07/22 01:01:22;;;;;;;17.03;14.17;;;;;;;;;;5075777;28;20205;-81
2022/07/22 01:03:49;;;;;;;17.77;14.97;;;;;;;;;;5077184;28;20228;-81
2022/07/22 01:06:14;;;;;;;15.83;13.47;;;17.10;99.90;;;;;;5075590;28;20174;-81
2022/07/22 01:08:41;;;;;;;21.73;14.80;;;17.30;99.90;;;;;;5077273;28;20181;-81
2022/07/22 01:11:11;;;;;;;15.93;13.83;;;17.30;99.90;;;;;;5077932;28;20185;-81
2022/07/22 01:13:39;;;;;;;15.90;14.20;;;17.20;99.90;;;;;;5077224;28;20166;-82
2022/07/22 01:16:06;;;;;;;17.60;14.63;;;17.20;99.90;;;;;;5077902;28;20182;-82
2022/07/22 01:18:32;;;;;;;16.63;14.73;;;17.40;99.90;;;;;;5078202;28;20237;-82
2022/07/22 01:20:58;;;;;;;16.93;15.13;;;17.20;99.90;;;;;;5076098;28;20244;-82
2022/07/22 01:23:24;;;;;;;19.07;15.00;;;17.20;99.90;;;;;;5076497;28;20182;-82
2022/07/22 01:25:50;;;;;;;18.20;14.87;;;;;;;;;;5077762;28;20225;-82
2022/07/22 01:28:16;;;;;;;17.17;14.73;;;;;;;;;;5078273;28;20200;-82
2022/07/22 01:30:42;;;;;;;16.50;14.67;;;17.10;99.90;;;;;;5085051;28;20183;-82
2022/07/22 01:33:07;;;;;;;18.17;13.93;;;17.10;99.90;;;;;;5080936;28;20181;-82
2022/07/22 01:35:33;;;;;;;18.20;15.87;;;;;;;;;;5075742;28;20543;-82
2022/07/22 01:37:59;;;;;;;20.63;15.30;;;17.10;99.90;;;;;;5076575;28;20533;-82
2022/07/22 01:40:25;;;;;;;18.20;14.73;;;17.10;99.90;;;;;;5076071;28;20177;-82
2022/07/22 01:42:51;;;;;;;18.57;15.20;;;17.10;99.90;;;;;;5075570;28;20608;-82
2022/07/22 01:45:17;;;;;;;18.53;15.07;;;17.00;99.90;;;;;;5075819;28;20281;-81
2022/07/22 01:47:43;;;;;;;17.20;14.83;;;17.00;99.90;;;;;;5075887;28;20250;-82
2022/07/22 01:50:11;;;;;;;15.77;13.90;;;17.00;99.90;;;;;;5080884;28;20179;-82
2022/07/22 01:52:38;;;;;;;16.53;14.73;;;17.00;99.90;;;;;;5080658;28;20174;-81
2022/07/22 01:55:07;;;;;;;20.70;15.00;;;16.90;99.90;;;;;;5080552;28;20194;-82
2022/07/22 01:57:35;;;;;;;22.80;17.80;;;16.90;99.90;;;;;;5080573;28;20177;-82
2022/07/22 02:00:00;;;;;;;16.50;14.73;;;16.90;99.90;;;;;;5079320;28;20196;-82
2022/07/22 02:02:26;;;;;;;16.30;14.57;;;;;;;;;;5079669;28;20182;-82
2022/07/22 02:04:52;;;;;;;17.17;14.77;;;16.80;99.90;;;;;;5081035;28;20213;-82
2022/07/22 02:07:18;;;;;;;16.13;14.43;;;16.80;99.90;;;;;;5081787;28;20205;-82
2022/07/22 02:09:43;;;;;;;17.77;15.37;;;16.80;99.90;;;;;;5081063;28;20533;-83
2022/07/22 02:12:09;;;;;;;18.73;15.80;;;16.70;99.90;;;;;;5079478;28;20178;-82
2022/07/22 02:14:35;;;;;;;16.43;14.73;;;16.70;99.90;;;;;;5079480;28;20216;-82
2022/07/22 02:17:00;;;;;;;18.00;16.03;;;16.70;99.90;;;;;;5081298;28;20184;-82
2022/07/22 02:19:26;;;;;;;18.23;13.97;;;;;;;;;;5084429;28;20185;-82
2022/07/22 02:21:53;;;;;;;16.27;14.57;;;16.70;99.90;;;;;;5080789;28;20534;-83
2022/07/22 02:24:19;;;;;;;19.63;14.63;;;16.70;99.90;;;;;;5078768;28;20288;-82
2022/07/22 02:26:44;;;;;;;16.20;13.90;;;16.60;99.90;;;;;;5080774;28;20255;-83
2022/07/22 02:29:10;;;;;;;16.67;14.57;;;16.60;99.90;;;;;;5081041;28;20182;-81
2022/07/22 02:31:36;;;;;;;20.40;14.33;;;16.60;99.90;;;;;;5080556;28;20189;-82
2022/07/22 02:34:01;;;;;;;17.60;14.90;;;16.50;99.90;;;;;;5078989;28;20213;-81
2022/07/22 02:36:27;;;;;;;16.57;14.80;;;;;;;;;;5078526;28;20177;-82
2022/07/22 02:38:53;;;;;;;17.00;15.20;;;16.50;99.90;;;;;;5079261;28;20199;-83
2022/07/22 02:41:19;;;;;;;16.63;14.50;;;16.40;99.90;;;;;;5080197;28;20172;-82
2022/07/22 02:43:45;;;;;;;17.90;14.47;;;;;;;;;;5079697;28;20326;-82
2022/07/22 02:46:10;;;;;;;19.13;14.73;;;16.40;99.90;;;;;;5078760;28;20185;-82
2022/07/22 02:48:36;;;;;;;18.03;15.40;;;16.30;99.90;;;;;;5079740;28;20187;-82
2022/07/22 02:51:03;;;;;;;17.63;14.23;;;16.30;99.90;;;;;;5080165;28;20204;-82
2022/07/22 02:53:28;;;;;;;16.67;14.83;;;16.30;99.90;;;;;;5078991;28;20187;-82
2022/07/22 02:55:54;;;;;;;17.13;14.10;;;16.20;99.90;;;;;;5080010;28;20189;-82
2022/07/22 02:58:20;;;;;;;17.10;14.23;;;;;;;;;;5078669;28;20187;-82
2022/07/22 03:00:46;;;;;;;17.73;14.83;;;16.20;99.90;;;;;;5079577;28;20623;-82
2022/07/22 03:03:12;;;;;;;17.20;15.20;;;16.20;99.90;;;;;;5080217;28;20198;-82
2022/07/22 03:05:38;;;;;;;18.97;15.30;;;16.20;99.90;;;;;;5080366;28;20223;-83
2022/07/22 03:08:03;;;;;;;19.10;14.53;;;16.10;99.90;;;;;;5080523;28;20186;-83
2022/07/22 03:10:29;;;;;;;17.27;14.23;;;16.10;99.90;;;;;;5081327;28;20200;-83
2022/07/22 03:12:56;;;;;;;18.33;14.70;;;16.10;99.90;;;;;;5084959;28;20196;-82
2022/07/22 03:15:21;;;;;;;16.80;15.00;;;16.10;99.90;;;;;;5083029;28;20232;-82
2022/07/22 03:17:47;;;;;;;18.63;14.40;;;;;;;;;;5079332;28;20244;-83
2022/07/22 03:20:13;;;;;;;17.30;14.70;;;16.10;99.90;;;;;;5078541;28;20213;-82
2022/07/22 03:22:39;;;;;;;20.33;15.20;;;16.00;99.90;;;;;;5079505;28;20203;-82
2022/07/22 03:25:05;;;;;;;17.40;14.93;;;16.10;99.90;;;;;;5079113;28;20219;-83
2022/07/22 03:27:31;;;;;;;15.93;14.23;;;16.10;99.90;;;;;;5080044;28;20706;-83
2022/07/22 03:29:56;;;;;;;19.87;15.60;;;16.00;99.90;;;;;;5078373;28;20196;-82
2022/07/22 03:32:22;;;;;;;16.37;14.50;;;16.00;99.90;;;;;;5077721;28;20208;-82
2022/07/22 03:34:48;;;;;;;18.87;14.80;;;15.90;99.90;;;;;;5078102;28;20258;-83
2022/07/22 03:37:13;;;;;;;16.77;13.87;;;15.90;99.90;;;;;;5079555;28;20638;-83
2022/07/22 03:39:39;;;;;;;20.53;15.23;;;;;;;;;;5080281;28;20211;-82
2022/07/22 03:42:05;;;;;;;17.00;15.10;;;15.90;99.90;;;;;;5078985;28;20165;-83
2022/07/22 03:44:31;;;;;;;19.70;15.23;;;15.90;99.90;;;;;;5078127;28;20221;-82
2022/07/22 03:46:57;;;;;;;15.77;14.07;;;;;;;;;;5078498;28;20586;-83
2022/07/22 03:49:22;;;;;;;17.40;14.73;;;15.90;99.90;;;;;;5079558;28;20169;-83
2022/07/22 03:51:48;;;;;;;17.67;15.23;;;15.90;99.90;;;;;;5080797;28;20209;-82
2022/07/22 03:54:14;;;;;;;17.87;14.00;;;;;;;;;;5080526;28;20216;-83
2022/07/22 03:56:40;;;;;;;16.73;14.00;;;15.90;99.90;;;;;;5077621;28;20545;-82
2022/07/22 03:59:06;;;;;;;16.40;14.63;;;15.90;99.90;;;;;;5079535;28;20193;-83
2022/07/22 04:01:31;;;;;;;16.03;14.33;;;15.90;99.90;;;;;;5078693;28;20540;-83
2022/07/22 04:03:57;;;;;;;20.20;14.80;;;15.90;99.90;;;;;;5079419;28;20203;-83
2022/07/22 04:06:23;;;;;;;16.93;14.40;;;15.90;99.90;;;;;;5078238;28;20192;-82
2022/07/22 04:08:49;;;;;;;22.90;13.80;;;;;;;;;;5077164;28;20177;-84
2022/07/22 04:11:14;;;;;;;20.50;15.60;;;15.90;99.90;;;;;;5077224;28;20185;-83
2022/07/22 04:13:40;;;;;;;17.07;13.93;;;15.90;99.90;;;;;;5077344;28;20276;-83
2022/07/22 04:16:06;;;;;;;23.37;14.57;;;15.90;99.90;;;;;;5079770;28;20184;-83
2022/07/22 04:18:32;;;;;;;16.83;13.83;;;15.90;99.90;;;;;;5079426;28;20181;-83
2022/07/22 04:20:58;;;;;;;16.50;14.57;;;15.80;99.90;;;;;;5078352;28;20230;-83
2022/07/22 04:23:24;;;;;;;18.07;14.33;;;15.90;99.90;;;;;;5079086;28;20177;-82
2022/07/22 04:25:50;;;;;;;16.27;14.13;;;15.80;99.90;;;;;;5079450;28;20199;-83
2022/07/22 04:28:15;;;;;;;18.13;13.63;;;15.90;99.90;;;;;;5077733;28;20264;-83
2022/07/22 04:30:41;;;;;;;16.30;13.33;;;15.80;99.90;;;;;;5078247;28;20215;-83
2022/07/22 04:33:07;;;;;;;15.63;13.83;;;15.90;99.90;;;;;;5079041;28;20173;-83
2022/07/22 04:35:33;;;;;;;17.20;14.43;;;15.90;99.90;;;;;;5078144;28;20209;-83
2022/07/22 04:37:59;;;;;;;16.53;14.27;;;16.00;99.90;;;;;;5079387;28;20594;-83
2022/07/22 04:40:24;;;;;;;17.87;13.50;;;16.00;99.90;;;;;;5077408;28;20180;-83
2022/07/22 04:42:50;;;;;;;16.83;14.50;;;16.00;99.90;;;;;;5080020;28;20199;-82
2022/07/22 04:45:16;;;;;;;16.47;14.13;;;16.00;99.90;;;;;;5080608;28;20208;-82
2022/07/22 04:47:42;;;;;;;15.53;13.83;;;16.10;99.90;;;;;;5078952;28;20177;-82
2022/07/22 04:50:08;;;;;;;21.40;13.47;;;16.20;99.90;;;;;;5079264;28;20176;-82
2022/07/22 04:52:34;;;;;;;16.53;14.27;;;16.20;99.90;;;;;;5081233;28;20263;-81
2022/07/22 04:55:00;;;;;;;17.53;13.60;;;16.30;99.90;;;;;;5081433;28;20235;-82
2022/07/22 04:57:26;;;;;;;17.03;14.40;;;16.30;99.90;;;;;;5079972;28;20241;-82
2022/07/22 04:59:52;;;;;;;18.07;14.20;;;16.40;99.90;;;;;;5081861;28;20556;-81
2022/07/22 05:02:19;;;;;;;16.00;13.30;;;16.40;99.90;;;;;;5080421;28;20177;-81
2022/07/22 05:04:45;;;;;;;15.47;13.13;;;16.40;99.90;;;;;;5080072;28;20258;-81
2022/07/22 05:07:10;;;;;;;17.50;12.77;;;16.50;99.90;;;;;;5081276;28;20642;-82
2022/07/22 05:09:36;;;;;;;15.83;13.27;;;16.60;99.90;;;;;;5081511;28;20212;-82
2022/07/22 05:12:03;;;;;;;14.73;13.23;;;16.60;99.90;;;;;;5080674;28;20211;-81
2022/07/22 05:14:28;;;;;;;15.27;13.67;;;16.70;99.90;;;;;;5080195;28;20254;-81
2022/07/22 05:16:54;;;;;;;15.13;13.17;;;16.80;99.90;;;;;;5079384;28;20173;-81
2022/07/22 05:19:20;;;;;;;18.57;12.93;;;16.90;99.90;;;;;;5082268;28;20173;-81
2022/07/22 05:21:45;;;;;;;16.80;12.80;;;16.90;99.90;;;;;;5084823;28;20682;-81
2022/07/22 05:24:12;;;;;;;15.30;12.87;;;16.90;99.90;;;;;;5087688;28;20208;-81
2022/07/22 05:26:37;;;;;;;15.53;13.00;;;17.00;99.90;;;;;;5085855;28;20227;-81
2022/07/22 05:29:03;;;;;;;14.77;12.90;;;17.10;99.90;;;;;;5082351;28;20173;-81
2022/07/22 05:31:29;;;;;;;14.40;12.80;;;17.10;99.90;;;;;;5082266;28;20508;-81
2022/07/22 05:33:55;;;;;;;15.10;12.50;;;17.30;99.90;;;;;;5080821;28;20236;-82
2022/07/22 05:36:21;;;;;;;13.67;12.17;;;17.30;99.90;;;;;;5079951;28;20688;-81
2022/07/22 05:38:47;;;;;;;13.53;11.77;;;17.30;99.90;;;;;;5080075;28;20192;-81
2022/07/22 05:41:13;;;;;;;13.47;12.07;;;17.40;99.90;;;;;;5082660;28;20173;-83
2022/07/22 05:43:38;;;;;;;14.47;11.87;;;17.50;99.90;;;;;;5080455;28;20182;-80
2022/07/22 05:46:05;;;;;;;12.93;11.63;;;17.50;99.90;;;;;;5081983;28;20181;-80
2022/07/22 05:48:30;;;;;;;12.97;11.57;;;17.60;99.90;;;;;;5083589;28;20178;-80
2022/07/22 05:50:56;;;;;;;14.33;11.90;;;17.70;99.90;;;;;;5080597;28;20248;-81
2022/07/22 05:53:22;;;;;;;14.27;11.87;;;17.70;99.90;;;;;;5079843;28;20510;-82
2022/07/22 05:55:48;;;;;;;12.30;11.00;;;17.80;99.90;;;;;;5079122;28;20219;-81
2022/07/22 05:58:13;;;;;;;13.70;11.23;;;17.90;99.90;;;;;;5080199;28;20169;-81
2022/07/22 06:00:39;;;;;;;13.97;11.07;;;18.00;99.90;;;;;;5078006;28;20629;-81
2022/07/22 06:03:05;;;;;;;14.77;11.73;;;18.10;99.90;;;;;;5079049;28;20165;-81
2022/07/22 06:05:31;;;;;;;12.43;11.13;;;18.10;99.90;;;;;;5077984;28;20213;-81
2022/07/22 06:07:57;;;;;;;14.13;11.13;;;18.20;99.90;;;;;;5078070;28;20189;-81
2022/07/22 06:10:22;;;;;;;15.50;11.03;;;18.30;99.90;;;;;;5079818;28;20546;-81
2022/07/22 06:12:48;;;;;;;17.40;11.60;;;18.50;99.90;;;;;;5080163;28;20200;-81
2022/07/22 06:15:14;;;;;;;13.20;10.67;;;18.60;99.90;;;;;;5078258;28;20210;-81
2022/07/22 06:17:40;;;;;;;13.93;11.23;;;18.70;99.90;;;;;;5078533;28;20177;-81
2022/07/22 06:20:06;;;;;;;11.83;10.63;;;18.70;99.90;;;;;;5079116;28;20178;-82
2022/07/22 06:22:32;;;;;;;15.90;12.47;;;18.80;99.90;;;;;;5081951;28;20226;-81
2022/07/22 06:24:57;;;;;;;13.23;10.27;;;19.00;99.90;;;;;;5085292;28;20195;-81
2022/07/22 06:27:23;;;;;;;13.20;10.60;;;;;;;;;;5081213;28;20181;-81
2022/07/22 06:29:49;;;;;;;12.27;10.13;;;19.10;99.90;;;;;;5078196;28;20648;-81
2022/07/22 06:32:15;;;;;;;14.97;11.37;;;19.20;99.90;;;;;;5078610;28;20182;-81
2022/07/22 06:34:40;;;;;;;13.07;10.70;;;19.30;99.90;;;;;;5076890;28;20214;-80
2022/07/22 06:37:06;;;;;;;16.13;12.00;;;19.30;99.90;;;;;;5076584;28;20177;-81
2022/07/22 06:39:32;;;;;;;14.30;11.30;;;19.40;99.90;;;;;;5078248;28;20595;-81
2022/07/22 06:41:58;;;;;;;15.37;12.53;;;19.40;99.90;;;;;;5078311;28;20256;-80
2022/07/22 06:44:23;;;;;;;14.23;11.33;;;19.50;99.90;;;;;;5077973;28;20222;-81
2022/07/22 06:46:49;;;;;;;17.13;10.97;;;19.60;99.90;;;;;;5078507;28;20272;-81
2022/07/22 06:49:15;;;;;;;14.40;10.90;;;19.60;99.90;;;;;;5077198;28;20640;-81
2022/07/22 06:51:40;;;;;;;17.07;11.70;;;19.70;99.90;;;;;;5078099;28;20312;-81
2022/07/22 06:54:06;;;;;;;14.30;11.40;;;19.80;99.90;;;;;;5077406;28;20219;-81
2022/07/22 06:56:32;;;;;;;13.53;11.57;;;19.90;99.90;;;;;;5078324;28;20187;-81
2022/07/22 06:58:57;;;;;;;12.27;10.97;;;20.10;99.90;;;;;;5076856;28;20185;-81
2022/07/22 07:01:23;;;;;;;13.37;11.03;;;20.20;99.90;;;;;;5078412;28;20634;-81
2022/07/22 07:03:49;;;;;;;12.10;10.80;;;20.40;99.90;;;;;;5078234;28;20192;-81
2022/07/22 07:06:14;;;;;;;13.53;10.70;;;20.40;99.90;;;;;;5078405;28;20180;-81
2022/07/22 07:08:40;;;;;;;14.87;10.73;;;20.60;99.90;;;;;;5078407;28;20183;-82
2022/07/22 07:11:06;;;;;;;13.50;10.63;;;20.70;99.90;;;;;;5076940;28;20275;-81
2022/07/22 07:13:32;;;;;;;13.13;11.10;;;20.80;99.90;;;;;;5076376;28;20214;-81
2022/07/22 07:15:58;;;;;;;14.70;11.20;;;21.00;99.90;;;;;;5076963;28;20603;-81
2022/07/22 07:18:24;;;;;;;12.30;10.40;;;21.20;99.90;;;;;;5077954;28;20180;-80
2022/07/22 07:20:50;;;;;;;13.17;10.57;;;21.30;99.90;;;;;;5076726;28;20263;-81
2022/07/22 07:23:16;;;;;;;15.30;10.40;;;21.40;99.90;;;;;;5078585;28;20193;-81
2022/07/22 07:25:42;;;;;;;21.13;11.30;;;21.50;99.90;;;;;;5077739;28;20188;-81
2022/07/22 07:28:08;;;;;;;18.27;11.50;;;21.90;99.90;;;;;;5076762;28;20177;-82
2022/07/22 07:30:34;;;;;;;17.97;12.60;;;21.80;99.90;;;;;;5078723;28;20243;-81
2022/07/22 07:33:03;;;;;;;16.60;12.70;;;22.00;99.90;;;;;;5077342;28;20524;-81
2022/07/22 07:35:29;;;;;;;12.27;10.97;;;22.00;99.90;;;;;;5077769;28;20213;-81
2022/07/22 07:37:55;;;;;;;15.73;11.23;;;22.10;99.90;;;;;;5078442;28;20589;-81
2022/07/22 07:40:20;;;;;;;14.80;11.10;;;22.20;99.90;;;;;;5079690;28;20208;-81
2022/07/22 07:42:47;;;;;;;12.47;10.90;;;;;;;;;;5079310;28;20627;-81
2022/07/22 07:45:12;;;;;;;17.63;11.93;;;22.50;99.90;;;;;;5078085;28;20196;-81
2022/07/22 07:47:38;;;;;;;12.77;11.43;;;22.60;99.90;;;;;;5078364;28;20168;-81
2022/07/22 07:50:07;;;;;;;15.03;12.60;;;22.70;99.90;;;;;;5078302;28;20176;-82
2022/07/22 07:52:40;;;;;;;15.47;11.27;;;22.90;99.90;;;;;;5077570;28;20223;-82
2022/07/22 07:55:07;;;;;;;13.37;11.70;;;23.20;99.90;;;;;;5080666;28;20212;-82
2022/07/22 07:57:33;;;;;;;12.97;11.63;;;23.30;99.90;;;;;;5078659;28;20201;-82
2022/07/22 07:59:59;;;;;;;15.40;11.27;;;23.40;99.90;;;;;;5078957;28;20177;-82
2022/07/22 08:02:25;;;;;;;12.63;10.00;;;23.60;99.90;;;;;;5078668;28;20173;-82
2022/07/22 08:04:51;;;;;;;15.00;10.40;;;23.80;99.90;;;;;;5077432;28;20201;-82
2022/07/22 08:07:16;;;;;;;10.97;9.87;;;23.80;99.90;;;;;;5079162;28;20662;-82
2022/07/22 08:09:42;;;;;;;11.23;10.13;;;24.00;99.90;;;;;;5080339;28;20173;-82
2022/07/22 08:12:08;;;;;;;12.07;10.87;;;24.10;99.90;;;;;;5077944;28;20226;-82
2022/07/22 08:14:34;;;;;;;10.87;9.77;;;24.20;99.90;;;;;;5076550;28;20209;-82
2022/07/22 08:17:00;;;;;;;11.13;9.43;;;24.30;99.90;;;;;;5076609;28;20603;-82
2022/07/22 08:19:26;;;;;;;10.87;9.83;;;24.40;99.90;;;;;;5077017;28;20244;-82
2022/07/22 08:21:51;;;;;;;11.73;9.30;;;24.60;99.90;;;;;;5076424;28;20230;-82
2022/07/22 08:24:17;;;;;;;13.93;9.80;;;24.70;99.90;;;;;;5076302;28;20208;-82
2022/07/22 08:26:43;;;;;;;10.27;9.03;;;24.90;99.90;;;;;;5078082;28;20176;-82
2022/07/22 08:29:09;;;;;;;9.80;8.80;;;24.90;99.90;;;;;;5077919;28;20199;-82
2022/07/22 08:31:36;;;;;;;10.37;9.30;;;24.90;99.90;;;;;;5077116;28;20181;-82
2022/07/22 08:34:05;;;;;;;10.47;8.13;;;25.00;99.90;;;;;;5076607;28;20205;-82
2022/07/22 08:36:31;;;;;;;11.57;8.83;;;25.20;99.90;;;;;;5078424;28;20173;-80
2022/07/22 08:38:57;;;;;;;9.57;7.83;;;25.40;99.90;;;;;;5076170;28;20589;-80
2022/07/22 08:41:24;;;;;;;11.97;8.03;;;25.50;99.90;;;;;;5076386;28;20173;-82
2022/07/22 08:43:51;;;;;;;11.87;9.87;;;25.60;99.90;;;;;;5078378;28;20170;-81
2022/07/22 08:46:17;;;;;;;10.53;8.30;;;25.80;99.90;;;;;;5076983;28;20172;-80
2022/07/22 08:48:45;;;;;;;9.17;8.17;;;25.90;99.90;;;;;;5078367;28;20172;-80
2022/07/22 08:51:11;;;;;;;8.00;6.73;;;26.10;99.90;;;;;;5077162;28;20187;-81
2022/07/22 08:53:36;;;;;;;9.80;7.60;;;26.40;99.90;;;;;;5077684;28;20259;-81
2022/07/22 08:56:02;;;;;;;10.20;8.13;;;26.50;99.90;;;;;;5076060;28;20584;-80
2022/07/22 08:58:28;;;;;;;8.70;7.13;;;26.70;99.90;;;;;;5076648;28;20167;-80
2022/07/22 09:01:06;;;;;;;8.53;6.70;;;26.90;99.90;;;;;;5077650;28;20177;-80
2022/07/22 09:03:31;;;;;;;8.80;6.90;;;27.10;99.90;;;;;;5076158;28;20251;-80
2022/07/22 09:05:58;;;;;;;11.40;7.40;;;27.30;99.90;;;;;;5076301;28;20192;-80
2022/07/22 09:08:24;;;;;;;8.37;5.60;;;27.50;99.90;;;;;;5075804;28;20199;-81
2022/07/22 09:10:50;;;;;;;7.63;5.37;;;27.70;99.90;;;;;;5078610;28;20623;-81
2022/07/22 09:13:18;;;;;;;7.37;6.10;;;27.90;99.90;;;;;;5081601;28;20173;-80
2022/07/22 09:15:54;;;;;;;9.27;6.90;;;28.20;99.90;;;;;;5083264;28;20205;-80
2022/07/22 09:18:21;;;;;;;7.17;6.17;;;28.40;99.90;;;;;;5075650;28;20177;-80
2022/07/22 09:20:47;;;;;;;8.70;5.70;;;28.50;99.90;;;;;;5076151;28;20173;-82
2022/07/22 09:23:24;;;;;;;8.00;6.10;;;28.60;99.90;;;;;;5076029;28;20169;-81
2022/07/22 09:25:50;;;;;;;7.10;5.60;;;28.70;99.90;;;;;;5076373;28;20207;-81
2022/07/22 09:28:18;;;;;;;7.17;6.40;;;28.80;99.90;;;;;;5077157;28;20169;-81
2022/07/22 09:30:53;;;;;;;7.00;6.30;;;28.90;99.90;;;;;;5077209;28;20181;-81
2022/07/22 09:33:20;;;;;;;9.80;5.90;;;29.00;99.90;;;;;;5075662;28;20187;-80
2022/07/22 09:35:47;;;;;;;7.47;6.40;;;29.10;99.90;;;;;;5077448;28;20205;-81
2022/07/22 09:38:15;;;;;;;7.77;6.33;;;29.20;99.90;;;;;;5075836;28;20338;-81
2022/07/22 09:40:48;;;;;;;7.13;5.87;;;29.10;99.90;;;;;;5078286;28;20158;-82
2022/07/22 09:43:19;;;;;;;8.83;6.73;;;29.20;99.90;;;;;;5078474;28;20193;-80
2022/07/22 09:45:59;;;;;;;10.20;6.80;;;29.30;99.90;;;;;;5079907;28;20546;-81
2022/07/22 09:48:25;;;;;;;6.60;6.00;;;29.40;99.90;;;;;;5079872;28;20173;-81
2022/07/22 09:50:52;;;;;;;6.80;5.93;;;29.50;99.90;;;;;;5077986;28;20187;-81
2022/07/22 09:53:21;;;;;;;7.77;6.03;;;29.60;99.90;;;;;;5079137;28;20170;-81
2022/07/22 09:55:47;;;;;;;6.90;5.67;;;29.80;99.90;;;;;;5077073;28;20257;-81
2022/07/22 09:58:13;;;;;;;6.57;5.80;;;29.90;99.90;;;;;;5078094;28;20173;-82
2022/07/22 10:00:41;;;;;;;6.13;5.47;;;30.10;99.90;;;;;;5077637;28;20176;-81
2022/07/22 10:03:08;;;;;;;7.87;5.50;;;30.20;99.90;;;;;;5078577;28;20179;-82
2022/07/22 10:05:39;;;;;;;7.37;5.43;;;30.40;99.90;;;;;;5078191;28;20197;-82
2022/07/22 10:08:06;;;;;;;7.63;5.30;;;30.70;99.90;;;;;;5077268;28;20234;-82
2022/07/22 10:10:33;;;;;;;8.10;5.83;;;30.80;99.90;;;;;;5081744;28;20181;-81
2022/07/22 10:13:01;;;;;;;7.03;6.07;;;31.00;99.30;;;;;;5081138;28;20182;-81
2022/07/22 10:15:28;;;;;;;10.90;5.70;;;31.00;98.50;;;;;;5079160;28;20246;-80
2022/07/22 10:18:00;;;;;;;7.13;5.93;;;31.10;99.90;;;;;;5080475;28;20615;-82
2022/07/22 10:20:28;;;;;;;7.57;6.37;;;31.20;99.90;;;;;;5080085;28;20177;-82
2022/07/22 10:23:07;;;;;;;6.93;5.93;;;31.30;99.60;;;;;;5077802;28;20177;-82
2022/07/22 10:25:49;;;;;;;7.70;6.10;;;31.30;98.90;;;;;;5078879;28;20196;-82
2022/07/22 10:28:33;;;;;;;7.50;6.30;;;31.30;98.00;;;;;;5080146;28;20195;-81
2022/07/22 10:31:24;;;;;;;6.33;5.63;;;31.30;98.60;;;;;;5078565;28;20232;-82
2022/07/22 10:33:55;;;;;;;8.60;5.60;;;31.80;96.30;;;;;;5078420;28;20581;-82
2022/07/22 10:36:37;;;;;;;6.67;6.00;;;31.80;98.60;;;;;;5079059;28;20295;-81
2022/07/22 10:39:11;;;;;;;6.03;5.40;;;31.90;94.70;;;;;;5080224;28;20189;-82
2022/07/22 10:41:39;;;;;;;6.53;5.53;;;31.50;93.40;;;;;;5080122;28;20515;-82
2022/07/22 10:44:06;;;;;;;6.17;5.57;;;31.60;98.30;;;;;;5078032;28;20242;-82
2022/07/22 10:46:50;;;;;;;5.83;5.20;;;32.00;95.60;;;;;;5079674;28;20629;-82
2022/07/22 10:49:18;;;;;;;6.40;5.83;;;32.30;96.70;;;;;;5079591;28;20169;-82
2022/07/22 10:52:06;;;;;;;7.47;6.77;;;32.50;95.80;;;;;;5077793;28;20185;-82
2022/07/22 10:54:32;;;;;;;6.27;5.67;;;32.60;91.80;;;;;;5078894;28;20205;-82
2022/07/22 10:57:00;;;;;;;7.00;5.87;;;32.20;90.70;;;;;;5079437;28;20181;-82
2022/07/22 10:59:26;;;;;;;5.93;5.33;;;32.00;92.10;;;;;;5079058;28;20177;-81
2022/07/22 11:01:53;;;;;;;8.73;5.83;;;32.00;93.40;;;;;;5078844;28;20179;-82
2022/07/22 11:04:22;;;;;;;6.70;5.93;;;32.20;95.60;;;;;;5077831;28;20199;-82
2022/07/22 11:06:50;;;;;;;6.20;5.60;;;32.60;92.30;;;;;;5078169;28;20180;-82
2022/07/22 11:09:18;;;;;;;8.93;6.00;;;32.80;93.40;;;;;;5077834;28;20250;-81
2022/07/22 11:11:49;;;;;;;6.47;5.53;;;32.90;89.90;;;;;;5080219;28;20238;-82
2022/07/22 11:14:25;;;;;;;7.27;5.90;;;32.90;92.10;;;;;;5081746;28;20215;-83
2022/07/22 11:16:51;;;;;;;5.93;5.43;;;33.10;92.60;;;;;;5080074;28;20176;-82
2022/07/22 11:19:26;;;;;;;6.33;5.73;;;33.40;91.50;;;;;;5079459;28;20660;-82
2022/07/22 11:21:56;;;;;;;7.13;6.27;;;33.70;90.80;;;;;;5078395;28;20172;-81
2022/07/22 11:24:23;;;;;;;8.97;5.73;;;33.80;88.70;;;;;;5080505;28;20207;-81
2022/07/22 11:26:52;;;;;;;7.43;5.70;;;33.80;90.00;;;;;;5081224;28;20596;-82
2022/07/22 11:29:26;;;;;;;6.13;5.60;;;33.80;89.00;;;;;;5081195;28;20175;-80
2022/07/22 11:31:53;;;;;;;6.43;5.90;;;33.80;91.30;;;;;;5080498;28;20175;-82
2022/07/22 11:34:20;;;;;;;6.57;5.97;;;34.00;90.20;;;;;;5078949;28;20212;-81
2022/07/22 11:36:46;;;;;;;9.33;6.30;;;34.20;86.40;;;;;;5080457;28;20172;-82
2022/07/22 11:39:14;;;;;;;6.40;5.70;;;34.20;86.40;;;;;;5078706;28;20336;-82
2022/07/22 11:41:40;;;;;;;6.50;5.87;;;34.10;86.10;;;;;;5080571;28;20646;-81
2022/07/22 11:44:07;;;;;;;7.80;5.80;;;34.20;90.20;;;;;;5080483;28;20348;-81
2022/07/22 11:46:41;;;;;;;6.67;5.87;;;34.00;82.40;;;;;;5080201;28;20168;-81
2022/07/22 11:49:08;;;;;;;6.93;5.63;;;34.00;85.70;;;;;;5078950;28;20173;-81
2022/07/22 11:51:36;;;;;;;6.80;6.10;;;34.10;84.40;;;;;;5079760;28;20206;-81
2022/07/22 11:54:04;;;;;;;6.63;5.90;;;34.20;77.60;;;;;;5078826;28;20210;-81
2022/07/22 11:56:30;;;;;;;9.20;5.97;;;34.30;86.00;;;;;;5079161;28;20227;-81
2022/07/22 11:58:57;;;;;;;6.53;5.67;;;34.40;87.50;;;;;;5080673;28;20174;-82
2022/07/22 12:01:26;;;;;;;7.73;6.30;;;34.50;88.40;;;;;;5080713;28;20178;-82
2022/07/22 12:03:59;;;;;;;6.47;5.87;;;34.90;82.10;;;;;;5077256;28;20245;-81
2022/07/22 12:06:26;;;;;;;7.27;6.07;;;34.90;85.70;;;;;;5078886;28;20174;-80
2022/07/22 12:09:03;;;;;;;6.37;5.87;;;35.00;77.90;;;;;;5080738;28;20180;-83
2022/07/22 12:11:29;;;;;;;6.23;5.73;;;34.90;77.50;;;;;;5084622;28;20173;-83
2022/07/22 12:13:55;;;;;;;6.47;5.70;;;34.90;87.10;;;;;;5081083;28;20175;-84
2022/07/22 12:16:26;;;;;;;7.37;5.40;;;35.00;79.90;;;;;;5080463;28;20182;-83
2022/07/22 12:18:54;;;;;;;6.13;5.60;;;35.10;84.10;;;;;;5080526;28;20178;-83
2022/07/22 12:21:21;;;;;;;6.77;5.90;;;35.40;79.10;;;;;;5082191;28;20329;-82
2022/07/22 12:23:53;;;;;;;6.50;5.73;;;35.50;79.80;;;;;;5081880;28;20254;-83
2022/07/22 12:26:19;;;;;;;6.17;5.67;;;35.40;82.90;;;;;;5082489;28;20182;-83
2022/07/22 12:28:45;;;;;;;6.10;5.20;;;35.00;80.80;;;;;;5082310;28;20175;-84
2022/07/22 12:31:11;;;;;;;9.47;6.10;;;35.30;80.00;;;;;;5081469;28;20180;-82
2022/07/22 12:33:36;;;;;;;5.83;5.23;;;35.20;79.20;;;;;;5080618;28;20218;-82
2022/07/22 12:36:07;;;;;;;6.30;5.70;;;35.30;79.90;;;;;;5080432;28;20298;-82